Nearby METAR Reports

 

KSJC - San Jose, California, USA
Distance from station: NE 9mi, 14km
Updated: Tue, 22-Jan-2019 7:53pm MST
Partly cloudy
Partly cloudy
 Wind from WSW
Wind: WSW 3 mph , 6 km/h
Temperature: 55°F , 13°C
Dew Point: 30°F , -1°C
Humidity: 38%
Barometer: 30.39 inHg , 1029.1 hPa
Clouds: Partly cloudy
Visibility: 10 miles , 16 km
Cloud details: Few Clouds 8000 ft
Partly cloudy 10000 ft
2019/01/23 02:53 KSJC 230253Z 24003KT 10SM FEW080 SCT100 13/M01 A3039 RMK AO2 SLP289 T01281011 53004
KNUQ - Moffett Nas/Mtn, California, USA
Distance from station: N 9mi, 14km
Updated: Tue, 22-Jan-2019 7:56pm MST
Clear
Clear
 Wind from calm
Wind: Calm
Temperature: 54°F , 12°C
Dew Point: 34°F , 1°C
Humidity: 47%
Barometer: 30.40 inHg , 1029.5 hPa
Clouds: Clear
Visibility: 10 miles , 16 km
2019/01/23 02:56 KNUQ 230256Z AUTO 00000KT 10SM CLR 12/01 A3040 RMK AO2 SLP295 T01220011 53005
KPAO - Palo Alto, California, USA
Distance from station: NNW 14mi, 23km
Updated: Tue, 22-Jan-2019 7:47pm MST
Few Clouds
Few Clouds
 Wind from calm
Wind: Calm
Temperature: 50°F , 10°C
Dew Point: 32°F , 0°C
Humidity: 50%
Barometer: 30.40 inHg , 1029.5 hPa
Clouds: Few Clouds
Visibility: 10 miles , 16 km
Cloud details: Few Clouds 10000 ft
2019/01/23 02:47 KPAO 230247Z 00000KT 10SM FEW100 10/00 A3040
 
KRHV - San Jose/Reid, California, USA
Distance from station: ENE 12mi, 19km
Updated: Tue, 22-Jan-2019 7:50pm MST
Clear
Clear
 Wind from varies
Wind: varies 6 mph , 9 km/h
Temperature: 52°F , 11°C
Dew Point: 36°F , 2°C
Humidity: 54%
Barometer: 30.37 inHg , 1028.4 hPa
Clouds: Clear
Visibility: 10 miles , 16 km
2019/01/23 02:50 KRHV 230250Z VRB05KT 10SM SKC 11/02 A3037
KOAK - Oakland, California, USA
Distance from station: NNW 31mi, 50km
Updated: Tue, 22-Jan-2019 7:53pm MST
Few Clouds
Few Clouds
 Wind from varies
Wind: varies 3 mph , 6 km/h
Temperature: 52°F , 11°C
Dew Point: 41°F , 5°C
Humidity: 67%
Barometer: 30.39 inHg , 1029.1 hPa
Clouds: Few Clouds
Visibility: 10 miles , 16 km
Cloud details: Few Clouds 20000 ft
2019/01/23 02:53 KOAK 230253Z VRB03KT 10SM FEW200 11/05 A3039 RMK AO2 SLP291 T01110050 53002
KSQL - San Carlos Airpo, California, USA
Distance from station: NW 21mi, 34km
Updated: Tue, 22-Jan-2019 7:47pm MST
Clear
Clear
 Wind from calm
Wind: Calm
Temperature: 54°F , 12°C
Dew Point: 37°F , 3°C
Humidity: 54%
Barometer: 30.38 inHg , 1028.8 hPa
Clouds: Clear
Visibility: 10 miles , 16 km
2019/01/23 02:47 KSQL 230247Z 00000KT 10SM SKC 12/03 A3038 RMK AIRPORT CLOSED
 
KSFO - San Francisco, California, USA
Distance from station: NW 30mi, 49km
Updated: Tue, 22-Jan-2019 7:56pm MST
Partly cloudy
Partly cloudy
 Wind from W
Wind: W 3 mph , 6 km/h
Temperature: 55°F , 13°C
Dew Point: 37°F , 3°C
Humidity: 51%
Barometer: 30.38 inHg , 1028.8 hPa
Clouds: Partly cloudy
Visibility: 10 miles , 16 km
Cloud details: Few Clouds 6000 ft
Partly cloudy 20000 ft
2019/01/23 02:56 KSFO 230256Z 27003KT 10SM FEW060 SCT200 13/03 A3038 RMK AO2 SLP286 T01280033 53001 $
KE16 - San Martin, California, USA
Distance from station: ESE 27mi, 43km
Updated: Tue, 22-Jan-2019 8:30pm MST
Clear
Clear
 Wind from calm
Wind: Calm
Temperature: 46°F , 8°C
Dew Point: 36°F , 2°C
Humidity: 66%
Barometer: 30.41 inHg , 1029.8 hPa
Clouds: Clear
Visibility: 10 miles , 16 km
2019/01/23 03:30 KE16 230330Z AUTO 00000KT 10SM CLR 08/02 A3041 RMK AO2
KWVI - Watsonville, California, USA
Distance from station: SSE 27mi, 44km
Updated: Tue, 22-Jan-2019 7:53pm MST
Clear
Clear
 Wind from NNW
Wind: NNW 5 mph , 7 km/h
Temperature: 48°F , 9°C
Wind Chill: 46°F , 8°C
Dew Point: 41°F , 5°C
Humidity: 76%
Barometer: 30.39 inHg , 1029.1 hPa
Clouds: Clear
Visibility: 10 miles , 16 km
2019/01/23 02:53 KWVI 230253Z AUTO 34004KT 10SM CLR 09/05 A3039 RMK AO2 SLP292 T00890050 $
 
KHAF - Half Moon Bay, California, USA
Distance from station: WNW 31mi, 50km
Updated: Tue, 22-Jan-2019 8:35pm MST
Clear
Clear
 Wind from NNE
Wind: NNE 5 mph , 7 km/h
Temperature: 45°F , 7°C
Wind Chill: 42°F , 6°C
Dew Point: 36°F , 2°C
Humidity: 71%
Barometer: 30.41 inHg , 1029.8 hPa
Clouds: Clear
Visibility: 10 miles , 16 km
2019/01/23 03:35 KHAF 230335Z AUTO 03004KT 10SM CLR 07/02 A3041 RMK AO2
KHWD - Hayward, California, USA
Distance from station: N 28mi, 44km
Updated: Tue, 22-Jan-2019 7:54pm MST
Clear
Clear
 Wind from ENE
Wind: ENE 5 mph , 7 km/h
Temperature: 54°F , 12°C
Dew Point: 36°F , 2°C
Humidity: 51%
Barometer: 30.38 inHg , 1028.8 hPa
Clouds: Clear
Visibility: 10 miles , 16 km
2019/01/23 02:54 KHWD 230254Z 07004KT 10SM CLR 12/02 A3038 RMK AO2 SLP298 T01220017 53001
KLVK - Livermore, California, USA
Distance from station: NNE 31mi, 51km
Updated: Tue, 22-Jan-2019 7:53pm MST
Clear
Clear
 Wind from ENE
Wind: ENE 5 mph , 7 km/h
Temperature: 46°F , 8°C
Wind Chill: 44°F , 7°C
Dew Point: 36°F , 2°C
Humidity: 66%
Barometer: 30.39 inHg , 1029.1 hPa
Clouds: Clear
Visibility: 10 miles , 16 km
2019/01/23 02:53 KLVK 230253Z 07004KT 10SM CLR 08/02 A3039 RMK AO2 SLP291 T00830017 53005